Terminal Aerodrome Forecast
Issued by NWS

Home | Current Version | Previous Version | Text Only | Print | Product List | Glossary Off
Versions: 1 2 3 4 5 6 7 8 9 10 11 12 13 14 15 16 17 18 19 20 21 22 23 24 25 26

050
FTUS43 KLOT 201500 AAA
TAFMDW
TAF AMD
KMDW 201500Z 2015/2112 17009KT P6SM VCSH BKN015
     FM201900 02012KT P6SM BKN025
     FM202200 02010KT P6SM SCT035 BKN060
     FM210400 02007KT P6SM BKN150=

USA.gov is the U.S. government's official web portal to all federal, state and local government web resources and services.